Time;durP1;ratioP1;P1;durP2;ratioP2;P2;SDS_P1;SDS_P2;PMS_P1;PMS_P2;Temp;Humidity;BMP_temperature;BMP_pressure;BME280_temperature;BME280_humidity;BME280_pressure;Samples;Min_cycle;Max_cycle;Signal;HPM_P1;HPM_P2
2022/04/28 00:03:12;;;;;;;20.77;12.10;;;9.80;1.00;;;;;;6224969;22;20446;-88
2022/04/28 00:05:49;;;;;;;19.70;14.40;;;9.80;1.00;;;;;;6213050;23;20389;-89
2022/04/28 00:08:31;;;;;;;22.40;14.47;;;9.80;1.00;;;;;;6226262;22;20399;-87
2022/04/28 00:11:20;;;;;;;20.90;15.23;;;9.80;1.00;;;;;;6222898;22;20601;-88
2022/04/28 00:14:11;;;;;;;20.43;13.47;;;9.90;1.00;;;;;;6229228;23;20417;-89
2022/04/28 00:16:42;;;;;;;20.27;13.53;;;9.90;1.00;;;;;;6235513;22;20440;-89
2022/04/28 00:19:12;;;;;;;18.47;13.40;;;9.90;1.00;;;;;;6269870;22;20424;-89
2022/04/28 00:24:22;;;;;;;19.87;13.70;;;9.90;1.00;;;;;;6236074;22;20418;-88
2022/04/28 00:26:53;;;;;;;21.10;14.07;;;10.00;1.00;;;;;;6235583;22;20403;-88
2022/04/28 00:29:32;;;;;;;19.07;13.27;;;10.00;1.00;;;;;;6232173;22;20401;-88
2022/04/28 00:32:09;;;;;;;19.40;12.60;;;10.00;1.00;;;;;;6204967;23;20412;-87
2022/04/28 00:35:03;;;;;;;;;;;;;;;;;;;;;
2022/04/28 00:37:32;;;;;;;16.80;12.20;;;10.10;1.00;;;;;;6222233;23;39136;-89
2022/04/28 00:45:43;;;;;;;17.07;11.90;;;10.10;1.00;;;;;;6225628;23;20437;-87
2022/04/28 00:54:11;;;;;;;19.77;13.40;;;10.00;1.00;;;;;;6218107;23;21119;-89
2022/04/28 00:56:41;;;;;;;23.80;14.20;;;10.00;1.00;;;;;;6223991;23;20393;-89
2022/04/28 00:59:22;;;;;;;18.50;13.73;;;9.90;1.00;;;;;;6222161;23;20388;-88
2022/04/28 01:01:51;;;;;;;19.40;13.70;;;9.90;1.00;;;;;;6222906;23;20427;-89
2022/04/28 01:04:22;;;;;;;19.93;13.80;;;9.90;1.00;;;;;;6203516;23;20478;-90
2022/04/28 01:06:53;;;;;;;18.43;12.47;;;9.90;1.00;;;;;;6222767;23;20413;-88
2022/04/28 01:09:21;;;;;;;20.30;13.80;;;9.90;1.00;;;;;;6222084;23;20370;-88
2022/04/28 01:11:50;;;;;;;24.50;14.43;;;9.90;1.00;;;;;;6222398;23;20432;-87
2022/04/28 01:17:51;;;;;;;17.60;13.27;;;9.90;1.00;;;;;;6076113;23;20440;-87
2022/04/28 01:20:30;;;;;;;19.70;12.70;;;9.80;1.00;;;;;;6228907;23;20407;-86
2022/04/28 01:23:43;;;;;;;;;;;;;;;;;;;;;
2022/04/28 01:26:45;;;;;;;;;;;;;;;;;;;;;
2022/04/28 01:29:31;;;;;;;18.40;12.50;;;9.60;1.00;;;;;;6232419;22;20396;-87
2022/04/28 01:32:01;;;;;;;19.03;12.70;;;9.40;1.00;;;;;;6254204;22;20430;-87
2022/04/28 01:34:31;;;;;;;17.20;13.50;;;9.40;1.00;;;;;;6254252;22;20454;-87
2022/04/28 01:37:00;;;;;;;19.37;13.40;;;9.40;1.00;;;;;;6252872;22;20426;-87
2022/04/28 01:40:00;;;;;;;19.40;12.43;;;9.40;1.00;;;;;;6255643;22;20426;-88
2022/04/28 01:42:32;;;;;;;18.13;12.60;;;9.30;1.00;;;;;;6253838;22;20387;-88
2022/04/28 01:45:06;;;;;;;19.00;13.30;;;9.40;1.00;;;;;;6265311;22;20396;-89
2022/04/28 01:50:23;;;;;;;19.43;13.23;;;9.40;1.00;;;;;;6266384;22;20383;-87
2022/04/28 01:55:52;;;;;;;17.50;13.17;;;9.50;1.00;;;;;;6250785;22;20420;-88
2022/04/28 02:04:24;;;;;;;;;;;;;;;;;;;;;
2022/04/28 02:06:51;;;;;;;17.47;12.60;;;9.50;1.00;;;;;;6219882;22;39173;-88
2022/04/28 02:09:40;;;;;;;19.87;12.83;;;9.60;1.00;;;;;;6251766;22;20402;-87
2022/04/28 02:12:13;;;;;;;18.13;12.80;;;9.60;1.00;;;;;;6254894;22;20391;-86
2022/04/28 02:14:41;;;;;;;16.67;11.60;;;9.60;1.00;;;;;;6255743;22;20428;-88
2022/04/28 02:20:13;;;;;;;17.50;11.63;;;9.60;1.00;;;;;;6208266;22;20473;-88
2022/04/28 02:33:43;;;;;;;22.83;15.33;;;9.50;1.00;;;;;;6200263;22;1348343;-88
2022/04/28 02:36:12;;;;;;;20.47;13.87;;;9.60;1.00;;;;;;6259194;22;20333;-87
2022/04/28 02:38:41;;;;;;;19.30;14.50;;;9.50;1.00;;;;;;6231058;22;20420;-87
2022/04/28 02:41:24;;;;;;;;;;;;;;;;;;;;;
2022/04/28 02:44:10;;;;;;;18.20;13.00;;;9.50;1.00;;;;;;6224853;22;38236;-88
2022/04/28 02:50:12;;;;;;;;;;;;;;;;;;;;;
2022/04/28 02:52:41;;;;;;;20.93;12.60;;;9.20;1.00;;;;;;6230273;22;39677;-89
2022/04/28 02:55:11;;;;;;;20.37;12.80;;;9.10;1.00;;;;;;6252927;22;20418;-88
2022/04/28 02:57:41;;;;;;;22.27;13.93;;;9.00;1.00;;;;;;6253550;22;20504;-88
2022/04/28 03:00:12;;;;;;;16.63;12.37;;;9.00;1.00;;;;;;6274062;22;20398;-88
2022/04/28 03:02:44;;;;;;;17.80;12.93;;;8.90;1.00;;;;;;6306830;22;20409;-88
2022/04/28 03:05:12;;;;;;;20.50;12.87;;;8.90;1.00;;;;;;6313482;22;20488;-88
2022/04/28 03:10:52;;;;;;;17.03;12.00;;;8.80;1.00;;;;;;6309346;22;20446;-89
2022/04/28 03:13:23;;;;;;;23.17;15.07;;;8.80;1.00;;;;;;6310592;22;21435;-86
2022/04/28 03:15:53;;;;;;;17.13;12.03;;;8.70;1.00;;;;;;6306703;22;20461;-86
2022/04/28 03:18:21;;;;;;;19.75;12.35;;;8.70;1.00;;;;;;6296389;22;20414;-88
2022/04/28 03:21:00;;;;;;;18.60;13.33;;;8.60;1.00;;;;;;6293400;22;20308;-88
2022/04/28 03:23:40;;;;;;;21.77;13.30;;;8.60;1.00;;;;;;6294443;22;20412;-87
2022/04/28 03:26:21;;;;;;;22.90;12.60;;;8.50;1.00;;;;;;6292727;22;20870;-87
2022/04/28 03:29:00;;;;;;;20.03;12.50;;;8.50;1.00;;;;;;6292802;22;20397;-87
2022/04/28 03:31:31;;;;;;;17.07;12.80;;;8.50;1.00;;;;;;6290051;22;20398;-89
2022/04/28 03:34:02;;;;;;;21.00;12.10;;;8.40;1.00;;;;;;6286228;22;20394;-87
2022/04/28 03:36:53;;;;;;;20.00;12.00;;;8.30;1.00;;;;;;6281883;22;20409;-88
2022/04/28 03:39:31;;;;;;;18.60;11.90;;;8.30;1.00;;;;;;6294513;22;20404;-87
2022/04/28 03:42:10;;;;;;;20.13;12.10;;;8.30;1.00;;;;;;6264969;22;20258;-87
2022/04/28 03:44:42;;;;;;;21.00;12.57;;;8.30;1.00;;;;;;6274944;22;20375;-87
2022/04/28 03:47:11;;;;;;;18.47;12.07;;;8.30;1.00;;;;;;6285378;22;22018;-88
2022/04/28 03:49:42;;;;;;;20.93;12.10;;;8.30;1.00;;;;;;6281842;22;20384;-87
2022/04/28 03:52:32;;;;;;;27.40;13.03;;;8.30;1.00;;;;;;6278667;22;20415;-88
2022/04/28 03:55:01;;;;;;;24.87;13.83;;;8.30;1.00;;;;;;6265912;22;21561;-87
2022/04/28 03:58:03;;;;;;;18.67;12.37;;;8.20;1.00;;;;;;6277638;22;20419;-87
2022/04/28 04:00:31;;;;;;;26.57;13.03;;;8.30;1.00;;;;;;6277827;22;20661;-88
2022/04/28 17:10:18;;;;;;;9.77;4.97;;;26.50;1.00;;;;;;6275708;22;20429;-86
2022/04/28 17:13:07;;;;;;;9.77;4.73;;;26.20;1.00;;;;;;6308209;22;20410;-86
2022/04/28 17:15:47;;;;;;;17.10;9.67;;;25.90;1.00;;;;;;6308892;22;20467;-89
2022/04/28 17:18:16;;;;;;;10.20;4.67;;;25.50;1.00;;;;;;6282143;22;20405;-89
2022/04/28 17:20:44;;;;;;;10.70;4.80;;;25.20;1.00;;;;;;6305082;22;21139;-86
2022/04/28 17:26:37;;;;;;;12.30;5.30;;;24.50;1.00;;;;;;6285642;22;20400;-86
2022/04/28 17:29:07;;;;;;;12.00;5.00;;;24.10;1.00;;;;;;6210754;22;20413;-89
2022/04/28 17:31:37;;;;;;;9.80;4.53;;;23.80;1.00;;;;;;6309365;22;20461;-85
2022/04/28 17:34:17;;;;;;;9.57;4.43;;;23.50;1.00;;;;;;6294057;22;20441;-89
2022/04/28 17:37:15;;;;;;;10.00;4.40;;;23.00;1.00;;;;;;6308339;22;20397;-86
2022/04/28 17:39:45;;;;;;;14.33;5.23;;;22.40;1.00;;;;;;6303488;22;20524;-86
2022/04/28 17:42:16;;;;;;;10.50;4.80;;;21.80;1.00;;;;;;6304772;22;20431;-84
2022/04/28 17:44:56;;;;;;;14.40;7.47;;;21.30;1.00;;;;;;6313353;22;20436;-89
2022/04/28 17:47:25;;;;;;;11.40;5.30;;;20.90;1.00;;;;;;6306751;22;20398;-86
2022/04/28 17:50:07;;;;;;;13.53;5.70;;;20.50;1.00;;;;;;6303308;22;20445;-86
2022/04/28 17:52:36;;;;;;;12.37;6.07;;;20.20;1.00;;;;;;6261492;22;21017;-86
2022/04/28 18:06:54;;;;;;;11.13;4.53;;;19.10;1.00;;;;;;6298303;22;20574;-89
2022/04/28 18:10:04;;;;;;;13.37;5.10;;;18.90;1.00;;;;;;6286591;22;20393;-87
2022/04/28 18:12:47;;;;;;;11.60;4.13;;;18.70;1.00;;;;;;6210130;23;20576;-88
2022/04/28 18:15:44;;;;;;;10.77;5.03;;;18.60;1.00;;;;;;6278002;22;20454;-86
2022/04/28 18:21:25;;;;;;;10.90;4.63;;;18.20;1.00;;;;;;6281434;22;21000;-86
2022/04/28 18:24:08;;;;;;;10.43;4.30;;;18.00;1.00;;;;;;6290680;22;20464;-86
2022/04/28 18:26:58;;;;;;;;;;;;;;;;;;;;;
2022/04/28 18:29:39;;;;;;;12.57;5.30;;;17.60;1.00;;;;;;6245890;22;50393;-85
2022/04/28 18:33:02;;;;;;;;;;;;;;;;;;;;;
2022/04/28 18:44:51;;;;;;;13.37;4.87;;;16.60;1.00;;;;;;6303287;22;20410;-84
2022/04/28 18:47:28;;;;;;;14.17;6.70;;;16.40;1.00;;;;;;6296507;22;20446;-85
2022/04/28 18:50:08;;;;;;;12.20;5.33;;;16.30;1.00;;;;;;6307725;22;20433;-88
2022/04/28 18:53:16;;;;;;;14.30;5.00;;;16.20;1.00;;;;;;6284401;22;20441;-87
2022/04/28 18:56:07;;;;;;;10.93;4.60;;;16.10;1.00;;;;;;6239629;22;21580;-87
2022/04/28 18:58:54;;;;;;;14.03;5.30;;;15.90;1.00;;;;;;6232773;22;20611;-87
2022/04/28 19:02:07;;;;;;;;;;;;;;;;;;;;;
2022/04/28 19:04:46;;;;;;;12.07;5.50;;;15.60;1.00;;;;;;6293672;22;51293;-87
2022/04/28 19:07:27;;;;;;;11.63;5.03;;;15.50;1.00;;;;;;6303044;22;20425;-86
2022/04/28 19:10:27;;;;;;;12.90;5.03;;;15.40;1.00;;;;;;6306553;22;20409;-88
2022/04/28 19:13:04;;;;;;;10.40;4.83;;;15.30;1.00;;;;;;6299822;22;20488;-88
2022/04/28 19:15:37;;;;;;;14.73;7.57;;;15.20;1.00;;;;;;6288796;22;21320;-87
2022/04/28 19:18:14;;;;;;;10.83;5.50;;;15.20;1.00;;;;;;6303279;22;21154;-87
2022/04/28 19:20:48;;;;;;;11.63;5.87;;;15.20;1.00;;;;;;6304707;22;20452;-87
2022/04/28 19:23:36;;;;;;;14.53;5.93;;;15.10;1.00;;;;;;6290805;22;20433;-86
2022/04/28 19:26:38;;;;;;;;;;;;;;;;;;;;;
2022/04/28 19:29:15;;;;;;;11.93;6.37;;;15.00;1.00;;;;;;6298139;22;20443;-86
2022/04/28 19:31:49;;;;;;;16.97;7.40;;;15.00;1.00;;;;;;6303405;22;20994;-87
2022/04/28 19:34:24;;;;;;;12.70;6.70;;;14.90;1.00;;;;;;6285543;22;20467;-87
2022/04/28 19:36:56;;;;;;;16.17;8.03;;;14.90;1.00;;;;;;6303281;22;20438;-87
2022/04/28 19:39:34;;;;;;;14.33;7.07;;;14.90;1.00;;;;;;6304296;22;20420;-87
2022/04/28 19:42:07;;;;;;;14.83;6.97;;;14.80;1.00;;;;;;6305594;22;20536;-88
2022/04/28 19:44:38;;;;;;;11.83;5.53;;;14.80;1.00;;;;;;6304224;22;20790;-87
2022/04/28 19:47:07;;;;;;;12.73;8.10;;;14.70;1.00;;;;;;6303391;22;20485;-86
2022/04/28 19:49:48;;;;;;;;;;;;;;;;;;;;;
2022/04/28 19:52:16;;;;;;;11.20;6.27;;;14.70;1.00;;;;;;6245675;22;40744;-87
2022/04/28 19:54:47;;;;;;;14.50;6.37;;;14.70;1.00;;;;;;6302769;22;20998;-87
2022/04/28 19:57:27;;;;;;;14.00;7.70;;;14.70;1.00;;;;;;6301052;22;20429;-86
2022/04/28 20:00:03;;;;;;;18.17;8.40;;;14.60;1.00;;;;;;6283565;22;20429;-86
2022/04/28 20:03:17;;;;;;;;;;;;;;;;;;;;;
2022/04/28 20:06:06;;;;;;;15.30;7.37;;;14.50;1.00;;;;;;6209169;22;51397;-89
2022/04/28 20:08:47;;;;;;;13.50;7.20;;;14.40;1.00;;;;;;6300340;22;20413;-85
2022/04/28 20:11:20;;;;;;;13.67;6.77;;;14.40;1.00;;;;;;6307203;22;20408;-85
2022/04/28 20:13:50;;;;;;;12.37;6.30;;;14.40;1.00;;;;;;6291008;22;20539;-88
2022/04/28 20:16:38;;;;;;;13.50;6.43;;;14.30;1.00;;;;;;6270148;22;20501;-87
2022/04/28 20:19:07;;;;;;;13.00;6.20;;;14.30;1.00;;;;;;6304201;22;20428;-86
2022/04/28 20:21:48;;;;;;;12.93;6.97;;;14.30;1.00;;;;;;6306798;22;20448;-88
2022/04/28 20:24:28;;;;;;;;;;;;;;;;;;;;;
2022/04/28 20:27:16;;;;;;;12.23;6.33;;;14.10;1.00;;;;;;6279152;22;40543;-88
2022/04/28 20:29:55;;;;;;;16.23;6.70;;;14.10;1.00;;;;;;6305477;22;20447;-88
2022/04/28 20:32:45;;;;;;;11.70;6.93;;;14.00;1.00;;;;;;6307513;22;21090;-89
2022/04/28 20:35:16;;;;;;;14.20;7.40;;;13.90;1.00;;;;;;6304926;22;21220;-88
2022/04/28 20:37:47;;;;;;;13.00;6.93;;;13.80;1.00;;;;;;6307567;22;20398;-87
2022/04/28 20:40:29;;;;;;;14.60;6.97;;;13.80;1.00;;;;;;6289947;22;20546;-89
2022/04/28 20:42:56;;;;;;;13.13;7.13;;;13.70;1.00;;;;;;6313463;22;20433;-83
2022/04/28 20:45:25;;;;;;;14.27;7.30;;;13.60;1.00;;;;;;6306210;22;20396;-83
2022/04/28 20:47:59;;;;;;;13.23;7.03;;;13.50;1.00;;;;;;6310920;22;20419;-84
2022/04/28 20:50:29;;;;;;;15.40;7.60;;;13.50;1.00;;;;;;6288155;22;20514;-82
2022/04/28 20:52:55;;;;;;;10.70;6.40;;;13.40;1.00;;;;;;6302971;22;20556;-82
2022/04/28 20:55:24;;;;;;;13.40;6.67;;;13.40;1.00;;;;;;6297082;22;20420;-83
2022/04/28 20:57:55;;;;;;;13.17;6.40;;;13.40;1.00;;;;;;6299969;22;20470;-83
2022/04/28 21:00:22;;;;;;;12.60;6.47;;;13.30;1.00;;;;;;6298296;22;20529;-84
2022/04/28 21:02:50;;;;;;;13.20;6.07;;;13.30;1.00;;;;;;6300134;22;20541;-82
2022/04/28 21:05:18;;;;;;;13.67;7.00;;;13.20;1.00;;;;;;6297437;22;20435;-83
2022/04/28 21:07:48;;;;;;;11.83;5.67;;;13.20;1.00;;;;;;6299868;22;20502;-83
2022/04/28 21:10:16;;;;;;;14.13;7.97;;;13.20;1.00;;;;;;6299869;22;20879;-85
2022/04/28 21:12:52;;;;;;;17.57;8.10;;;13.10;1.00;;;;;;6304974;22;20842;-84
2022/04/28 21:15:25;;;;;;;13.30;6.93;;;13.00;1.00;;;;;;6300691;22;20422;-84
2022/04/28 21:17:58;;;;;;;17.17;8.20;;;13.00;1.00;;;;;;6299831;22;20439;-84
2022/04/28 21:20:36;;;;;;;13.77;7.53;;;12.90;1.00;;;;;;6304306;22;20439;-83
2022/04/28 21:23:06;;;;;;;14.27;6.80;;;12.90;1.00;;;;;;6300546;22;21122;-83
2022/04/28 21:25:37;;;;;;;14.30;6.57;;;12.80;1.00;;;;;;6303723;22;20504;-85
2022/04/28 21:28:06;;;;;;;13.37;6.77;;;12.70;1.00;;;;;;6303585;22;20426;-84
2022/04/28 21:30:35;;;;;;;15.40;6.90;;;12.70;1.00;;;;;;6275462;22;20483;-84
2022/04/28 21:33:02;;;;;;;13.23;7.17;;;12.60;1.00;;;;;;6301160;22;20414;-83
2022/04/28 21:35:33;;;;;;;16.73;8.73;;;12.60;1.00;;;;;;6304327;22;20543;-84
2022/04/28 21:38:03;;;;;;;12.60;8.20;;;12.50;1.00;;;;;;6302284;22;20512;-83
2022/04/28 21:40:31;;;;;;;11.53;6.03;;;12.40;1.00;;;;;;6300491;22;20453;-85
2022/04/28 21:43:00;;;;;;;14.17;7.00;;;12.40;1.00;;;;;;6301331;22;20422;-84
2022/04/28 21:45:28;;;;;;;13.13;6.87;;;12.30;1.00;;;;;;6256952;22;20453;-84
2022/04/28 21:47:56;;;;;;;13.97;6.70;;;12.20;1.00;;;;;;6303811;22;20434;-83
2022/04/28 21:50:26;;;;;;;13.50;7.30;;;12.10;1.00;;;;;;6303199;22;20423;-84
2022/04/28 21:53:05;;;;;;;14.33;6.53;;;12.00;1.00;;;;;;6302863;22;20429;-84
2022/04/28 21:55:46;;;;;;;13.47;7.57;;;11.90;1.00;;;;;;6301569;22;20525;-84
2022/04/28 21:58:36;;;;;;;13.60;6.63;;;11.90;1.00;;;;;;6301990;22;20438;-85
2022/04/28 22:01:37;;;;;;;13.50;7.20;;;11.80;1.00;;;;;;6268262;22;20520;-85
2022/04/28 22:12:27;;;;;;;17.40;8.40;;;11.60;1.00;;;;;;6252696;22;20563;-84
2022/04/28 22:14:56;;;;;;;14.17;7.07;;;11.60;1.00;;;;;;6299743;22;20549;-82
2022/04/28 22:17:26;;;;;;;14.63;8.10;;;11.60;1.00;;;;;;6300718;22;20414;-83
2022/04/28 22:19:54;;;;;;;16.13;8.63;;;11.50;1.00;;;;;;6274919;22;20595;-84
2022/04/28 22:22:30;;;;;;;14.17;9.40;;;11.40;1.00;;;;;;6303447;22;20965;-84
2022/04/28 22:25:03;;;;;;;18.53;10.30;;;11.40;1.00;;;;;;6302499;22;20437;-84
2022/04/28 22:27:36;;;;;;;15.93;10.50;;;11.40;1.00;;;;;;6303619;22;20468;-85
2022/04/28 22:30:15;;;;;;;21.57;10.67;;;11.40;1.00;;;;;;6302652;22;20430;-84
2022/04/28 22:32:49;;;;;;;17.57;10.73;;;11.40;1.00;;;;;;6301258;22;20766;-84
